sensor_id;sensor_type;location;lat;lon;timestamp;pressure;altitude;pressure_sealevel;temperature;humidity
71384;BME280;61466;52.166;5.004;2022-07-23T00:02:14;102089.03;;;17.59;60.85
71384;BME280;61466;52.166;5.004;2022-07-23T00:04:39;102086.06;;;17.56;60.67
71384;BME280;61466;52.166;5.004;2022-07-23T00:07:05;102083.09;;;17.52;60.84
71384;BME280;61466;52.166;5.004;2022-07-23T00:09:30;102079.91;;;17.45;60.97
71384;BME280;61466;52.166;5.004;2022-07-23T00:11:56;102080.75;;;17.40;61.26
71384;BME280;61466;52.166;5.004;2022-07-23T00:14:22;102070.53;;;17.32;61.38
71384;BME280;61466;52.166;5.004;2022-07-23T00:16:47;102084.31;;;17.31;61.26
71384;BME280;61466;52.166;5.004;2022-07-23T00:19:12;102078.69;;;17.27;61.67
71384;BME280;61466;52.166;5.004;2022-07-23T00:21:37;102070.06;;;17.20;62.03
71384;BME280;61466;52.166;5.004;2022-07-23T00:24:03;102077.94;;;17.16;61.64
71384;BME280;61466;52.166;5.004;2022-07-23T00:26:28;102066.59;;;17.09;61.61
71384;BME280;61466;52.166;5.004;2022-07-23T00:28:54;102073.34;;;17.12;61.71
71384;BME280;61466;52.166;5.004;2022-07-23T00:31:19;102072.28;;;17.08;61.96
71384;BME280;61466;52.166;5.004;2022-07-23T00:33:45;102063.13;;;17.04;61.96
71384;BME280;61466;52.166;5.004;2022-07-23T00:36:10;102072.31;;;17.03;62.53
71384;BME280;61466;52.166;5.004;2022-07-23T00:38:35;102060.47;;;16.93;62.00
71384;BME280;61466;52.166;5.004;2022-07-23T00:41:01;102070.19;;;16.94;62.40
71384;BME280;61466;52.166;5.004;2022-07-23T00:43:26;102069.38;;;16.94;62.12
71384;BME280;61466;52.166;5.004;2022-07-23T00:45:51;102060.47;;;16.88;62.65
71384;BME280;61466;52.166;5.004;2022-07-23T00:48:17;102066.19;;;16.87;62.41
71384;BME280;61466;52.166;5.004;2022-07-23T00:50:43;102061.31;;;16.84;62.73
71384;BME280;61466;52.166;5.004;2022-07-23T00:53:08;102054.28;;;16.77;62.75
71384;BME280;61466;52.166;5.004;2022-07-23T00:55:34;102055.66;;;16.75;62.97
71384;BME280;61466;52.166;5.004;2022-07-23T00:58:00;102046.72;;;16.74;63.04
71384;BME280;61466;52.166;5.004;2022-07-23T01:00:26;102037.59;;;16.65;62.82
71384;BME280;61466;52.166;5.004;2022-07-23T01:02:52;102052.97;;;16.70;63.13
71384;BME280;61466;52.166;5.004;2022-07-23T01:05:17;102044.34;;;16.68;63.42
71384;BME280;61466;52.166;5.004;2022-07-23T01:07:50;102032.72;;;16.62;63.71
71384;BME280;61466;52.166;5.004;2022-07-23T01:10:16;102034.63;;;16.62;63.76
71384;BME280;61466;52.166;5.004;2022-07-23T01:13:08;102033.81;;;16.61;63.78
71384;BME280;61466;52.166;5.004;2022-07-23T01:15:35;102025.72;;;16.56;63.89
71384;BME280;61466;52.166;5.004;2022-07-23T01:18:03;102028.41;;;16.56;63.90
71384;BME280;61466;52.166;5.004;2022-07-23T01:20:30;102033.03;;;16.55;64.02
71384;BME280;61466;52.166;5.004;2022-07-23T01:22:55;102031.69;;;16.53;64.24
71384;BME280;61466;52.166;5.004;2022-07-23T01:25:21;102032.25;;;16.50;64.15
71384;BME280;61466;52.166;5.004;2022-07-23T01:27:46;102029.00;;;16.48;64.53
71384;BME280;61466;52.166;5.004;2022-07-23T01:30:12;102027.38;;;16.47;64.65
71384;BME280;61466;52.166;5.004;2022-07-23T01:32:38;102016.06;;;16.40;64.45
71384;BME280;61466;52.166;5.004;2022-07-23T01:35:04;102027.41;;;16.42;64.36
71384;BME280;61466;52.166;5.004;2022-07-23T01:37:30;102024.97;;;16.40;64.42
71384;BME280;61466;52.166;5.004;2022-07-23T01:39:55;102030.38;;;16.40;64.18
71384;BME280;61466;52.166;5.004;2022-07-23T01:42:20;102026.34;;;16.37;64.54
71384;BME280;61466;52.166;5.004;2022-07-23T01:44:46;102015.28;;;16.34;64.39
71384;BME280;61466;52.166;5.004;2022-07-23T01:47:11;102029.03;;;16.37;64.67
71384;BME280;61466;52.166;5.004;2022-07-23T01:49:37;102017.16;;;16.33;64.67
71384;BME280;61466;52.166;5.004;2022-07-23T01:52:02;102030.94;;;16.32;64.59
71384;BME280;61466;52.166;5.004;2022-07-23T01:54:29;102032.28;;;16.29;64.89
71384;BME280;61466;52.166;5.004;2022-07-23T01:56:55;102022.06;;;16.26;64.67
71384;BME280;61466;52.166;5.004;2022-07-23T01:59:21;102027.16;;;16.28;64.61
71384;BME280;61466;52.166;5.004;2022-07-23T02:01:47;102036.91;;;16.29;64.42
71384;BME280;61466;52.166;5.004;2022-07-23T02:04:12;102041.50;;;16.28;64.51
71384;BME280;61466;52.166;5.004;2022-07-23T02:06:37;102035.03;;;16.24;64.78
71384;BME280;61466;52.166;5.004;2022-07-23T02:09:03;102035.56;;;16.21;64.54
71384;BME280;61466;52.166;5.004;2022-07-23T02:11:28;102033.94;;;16.20;64.64
71384;BME280;61466;52.166;5.004;2022-07-23T02:13:53;102021.28;;;16.15;64.70
71384;BME280;61466;52.166;5.004;2022-07-23T02:16:19;102014.53;;;16.08;64.84
71384;BME280;61466;52.166;5.004;2022-07-23T02:18:44;102019.38;;;16.11;64.95
71384;BME280;61466;52.166;5.004;2022-07-23T02:21:11;102023.72;;;16.07;64.85
71384;BME280;61466;52.166;5.004;2022-07-23T02:23:36;102020.47;;;16.05;65.06
71384;BME280;61466;52.166;5.004;2022-07-23T02:26:01;102028.03;;;16.03;64.94
71384;BME280;61466;52.166;5.004;2022-07-23T02:28:27;102030.19;;;16.01;65.32
71384;BME280;61466;52.166;5.004;2022-07-23T02:30:52;102033.44;;;15.97;65.35
71384;BME280;61466;52.166;5.004;2022-07-23T02:33:17;102031.28;;;15.94;65.54
71384;BME280;61466;52.166;5.004;2022-07-23T02:35:43;102029.41;;;15.90;65.52
71384;BME280;61466;52.166;5.004;2022-07-23T02:38:08;102039.09;;;15.91;65.38
71384;BME280;61466;52.166;5.004;2022-07-23T02:40:33;102032.91;;;15.85;65.40
71384;BME280;61466;52.166;5.004;2022-07-23T02:42:58;102036.69;;;15.84;65.44
71384;BME280;61466;52.166;5.004;2022-07-23T02:45:24;102035.34;;;15.82;65.84
71384;BME280;61466;52.166;5.004;2022-07-23T02:47:49;102040.19;;;15.80;65.68
71384;BME280;61466;52.166;5.004;2022-07-23T02:50:15;102035.63;;;15.75;65.81
71384;BME280;61466;52.166;5.004;2022-07-23T02:52:40;102042.91;;;15.74;65.90
71384;BME280;61466;52.166;5.004;2022-07-23T02:55:06;102044.78;;;15.74;65.95
71384;BME280;61466;52.166;5.004;2022-07-23T02:57:31;102043.66;;;15.70;65.95
71384;BME280;61466;52.166;5.004;2022-07-23T02:59:57;102043.13;;;15.63;66.04
71384;BME280;61466;52.166;5.004;2022-07-23T03:02:22;102052.84;;;15.69;65.95
71384;BME280;61466;52.166;5.004;2022-07-23T03:04:48;102063.63;;;15.69;66.09
71384;BME280;61466;52.166;5.004;2022-07-23T03:07:15;102056.59;;;15.63;66.27
71384;BME280;61466;52.166;5.004;2022-07-23T03:09:41;102054.44;;;15.65;66.40
71384;BME280;61466;52.166;5.004;2022-07-23T03:12:06;102062.53;;;15.70;66.57
71384;BME280;61466;52.166;5.004;2022-07-23T03:14:32;102056.41;;;15.74;66.55
71384;BME280;61466;52.166;5.004;2022-07-23T03:16:57;102057.44;;;15.79;66.67
71384;BME280;61466;52.166;5.004;2022-07-23T03:19:24;102055.31;;;15.86;66.44
71384;BME280;61466;52.166;5.004;2022-07-23T03:21:50;102063.38;;;15.91;66.54
71384;BME280;61466;52.166;5.004;2022-07-23T03:24:15;102061.50;;;15.96;66.36
71384;BME280;61466;52.166;5.004;2022-07-23T03:26:42;102052.84;;;16.00;66.29
71384;BME280;61466;52.166;5.004;2022-07-23T03:29:08;102055.56;;;16.00;66.26
71384;BME280;61466;52.166;5.004;2022-07-23T03:31:33;102052.03;;;16.04;65.97
71384;BME280;61466;52.166;5.004;2022-07-23T03:33:59;102043.94;;;16.04;65.99
71384;BME280;61466;52.166;5.004;2022-07-23T03:36:25;102035.03;;;16.04;66.08
71384;BME280;61466;52.166;5.004;2022-07-23T03:38:51;102047.19;;;16.11;65.62
71384;BME280;61466;52.166;5.004;2022-07-23T03:41:16;102037.72;;;16.09;65.71
71384;BME280;61466;52.166;5.004;2022-07-23T03:43:42;102042.03;;;16.15;65.69
71384;BME280;61466;52.166;5.004;2022-07-23T03:46:07;102028.00;;;16.13;65.86
71384;BME280;61466;52.166;5.004;2022-07-23T03:48:32;102036.09;;;16.18;65.88
71384;BME280;61466;52.166;5.004;2022-07-23T03:50:58;102027.47;;;16.16;65.08
71384;BME280;61466;52.166;5.004;2022-07-23T03:53:23;102038.25;;;16.21;65.83
71384;BME280;61466;52.166;5.004;2022-07-23T03:55:48;102028.53;;;16.20;65.50
71384;BME280;61466;52.166;5.004;2022-07-23T03:58:14;102042.03;;;16.20;65.46
71384;BME280;61466;52.166;5.004;2022-07-23T04:00:39;102038.50;;;16.20;65.55
71384;BME280;61466;52.166;5.004;2022-07-23T04:03:04;102040.16;;;16.10;65.82
71384;BME280;61466;52.166;5.004;2022-07-23T04:05:30;102027.50;;;15.95;66.13
71384;BME280;61466;52.166;5.004;2022-07-23T04:07:55;102036.69;;;15.94;66.34
71384;BME280;61466;52.166;5.004;2022-07-23T04:10:20;102042.59;;;15.91;66.40
71384;BME280;61466;52.166;5.004;2022-07-23T04:12:46;102046.91;;;15.87;66.57
71384;BME280;61466;52.166;5.004;2022-07-23T04:15:11;102044.22;;;15.87;66.36
71384;BME280;61466;52.166;5.004;2022-07-23T04:17:36;102046.66;;;15.99;65.89
71384;BME280;61466;52.166;5.004;2022-07-23T04:20:03;102057.19;;;16.01;65.84
71384;BME280;61466;52.166;5.004;2022-07-23T04:22:28;102053.94;;;16.04;65.73
71384;BME280;61466;52.166;5.004;2022-07-23T04:24:53;102056.63;;;16.04;65.84
71384;BME280;61466;52.166;5.004;2022-07-23T04:27:19;102049.63;;;16.03;65.97
71384;BME280;61466;52.166;5.004;2022-07-23T04:29:44;102052.31;;;16.03;65.84
71384;BME280;61466;52.166;5.004;2022-07-23T04:32:09;102058.81;;;16.07;66.05
71384;BME280;61466;52.166;5.004;2022-07-23T04:34:35;102059.06;;;16.10;65.97
71384;BME280;61466;52.166;5.004;2022-07-23T04:37:00;102055.28;;;16.11;65.92
71384;BME280;61466;52.166;5.004;2022-07-23T04:39:25;102057.44;;;16.14;65.99
71384;BME280;61466;52.166;5.004;2022-07-23T04:41:51;102060.41;;;16.18;65.90
71384;BME280;61466;52.166;5.004;2022-07-23T04:44:16;102056.91;;;16.07;66.31
71384;BME280;61466;52.166;5.004;2022-07-23T04:46:41;102066.88;;;16.12;66.49
71384;BME280;61466;52.166;5.004;2022-07-23T04:49:07;102060.91;;;16.25;66.88
71384;BME280;61466;52.166;5.004;2022-07-23T04:51:32;102063.03;;;16.38;66.51
71384;BME280;61466;52.166;5.004;2022-07-23T04:53:57;102064.38;;;16.56;66.06
71384;BME280;61466;52.166;5.004;2022-07-23T04:56:23;102064.59;;;16.70;65.98
71384;BME280;61466;52.166;5.004;2022-07-23T04:58:48;102070.41;;;17.03;65.46
71384;BME280;61466;52.166;5.004;2022-07-23T05:01:14;102064.22;;;17.47;64.59
71384;BME280;61466;52.166;5.004;2022-07-23T05:03:39;102066.63;;;17.88;63.44
71384;BME280;61466;52.166;5.004;2022-07-23T05:06:05;102063.28;;;18.26;62.81
71384;BME280;61466;52.166;5.004;2022-07-23T05:08:30;102058.88;;;18.59;62.18
71384;BME280;61466;52.166;5.004;2022-07-23T05:10:55;102055.28;;;18.88;61.66
71384;BME280;61466;52.166;5.004;2022-07-23T05:13:21;102055.38;;;19.20;61.27
71384;BME280;61466;52.166;5.004;2022-07-23T05:15:46;102066.88;;;19.69;60.32
71384;BME280;61466;52.166;5.004;2022-07-23T05:18:12;102067.09;;;20.05;59.56
71384;BME280;61466;52.166;5.004;2022-07-23T05:20:38;102059.88;;;20.42;58.92
71384;BME280;61466;52.166;5.004;2022-07-23T05:23:03;102062.50;;;20.75;58.44
71384;BME280;61466;52.166;5.004;2022-07-23T05:25:29;102051.38;;;21.13;57.48
71384;BME280;61466;52.166;5.004;2022-07-23T05:27:54;102061.97;;;21.51;56.68
71384;BME280;61466;52.166;5.004;2022-07-23T05:30:20;102055.22;;;21.71;55.78
71384;BME280;61466;52.166;5.004;2022-07-23T05:32:45;102059.03;;;21.70;55.01
71384;BME280;61466;52.166;5.004;2022-07-23T05:35:11;102070.63;;;21.76;54.41
71384;BME280;61466;52.166;5.004;2022-07-23T05:37:37;102078.03;;;21.61;54.82
71384;BME280;61466;52.166;5.004;2022-07-23T05:40:05;102081.97;;;21.55;54.91
71384;BME280;61466;52.166;5.004;2022-07-23T05:42:35;102081.06;;;21.82;54.38
71384;BME280;61466;52.166;5.004;2022-07-23T05:45:01;102090.13;;;22.23;53.86
71384;BME280;61466;52.166;5.004;2022-07-23T05:47:28;102080.50;;;22.57;52.88
71384;BME280;61466;52.166;5.004;2022-07-23T05:49:53;102079.44;;;22.93;51.76
71384;BME280;61466;52.166;5.004;2022-07-23T05:52:18;102076.94;;;23.22;50.58
71384;BME280;61466;52.166;5.004;2022-07-23T05:54:44;102083.03;;;23.54;50.60
71384;BME280;61466;52.166;5.004;2022-07-23T05:57:09;102075.31;;;23.82;49.88
71384;BME280;61466;52.166;5.004;2022-07-23T05:59:34;102084.50;;;24.25;49.04
71384;BME280;61466;52.166;5.004;2022-07-23T06:02:00;102077.44;;;24.62;48.06
71384;BME280;61466;52.166;5.004;2022-07-23T06:04:25;102081.72;;;25.02;47.68
71384;BME280;61466;52.166;5.004;2022-07-23T06:06:51;102076.22;;;25.44;47.31
71384;BME280;61466;52.166;5.004;2022-07-23T06:09:16;102075.88;;;25.79;46.06
71384;BME280;61466;52.166;5.004;2022-07-23T06:11:41;102083.03;;;25.92;45.18
71384;BME280;61466;52.166;5.004;2022-07-23T06:14:07;102058.47;;;25.95;44.74
71384;BME280;61466;52.166;5.004;2022-07-23T06:16:32;102079.91;;;26.27;43.37
71384;BME280;61466;52.166;5.004;2022-07-23T06:18:57;102082.28;;;26.41;43.32
71384;BME280;61466;52.166;5.004;2022-07-23T06:21:23;102082.31;;;26.65;42.83
71384;BME280;61466;52.166;5.004;2022-07-23T06:23:48;102082.53;;;26.85;41.76
71384;BME280;61466;52.166;5.004;2022-07-23T06:26:14;102067.75;;;26.89;40.91
71384;BME280;61466;52.166;5.004;2022-07-23T06:28:39;102076.13;;;26.81;40.69
71384;BME280;61466;52.166;5.004;2022-07-23T06:31:05;102079.69;;;27.09;41.14
71384;BME280;61466;52.166;5.004;2022-07-23T06:33:30;102084.09;;;27.39;39.83
71384;BME280;61466;52.166;5.004;2022-07-23T06:35:55;102082.00;;;27.48;40.26
71384;BME280;61466;52.166;5.004;2022-07-23T06:38:20;102080.72;;;27.73;38.80
71384;BME280;61466;52.166;5.004;2022-07-23T06:40:46;102074.50;;;27.76;39.09
71384;BME280;61466;52.166;5.004;2022-07-23T06:43:11;102077.06;;;27.53;39.05
71384;BME280;61466;52.166;5.004;2022-07-23T06:45:36;102078.66;;;27.54;39.59
71384;BME280;61466;52.166;5.004;2022-07-23T06:48:02;102072.66;;;27.81;38.69
71384;BME280;61466;52.166;5.004;2022-07-23T06:50:28;102080.06;;;28.24;37.64
71384;BME280;61466;52.166;5.004;2022-07-23T06:52:53;102081.56;;;28.53;37.01
71384;BME280;61466;52.166;5.004;2022-07-23T06:55:19;102095.00;;;28.55;36.49
71384;BME280;61466;52.166;5.004;2022-07-23T06:57:44;102074.56;;;28.24;36.31
71384;BME280;61466;52.166;5.004;2022-07-23T07:00:10;102081.22;;;27.91;36.89
71384;BME280;61466;52.166;5.004;2022-07-23T07:02:36;102085.59;;;27.64;38.23
71384;BME280;61466;52.166;5.004;2022-07-23T07:05:02;102085.19;;;27.94;37.58
71384;BME280;61466;52.166;5.004;2022-07-23T07:07:27;102072.31;;;28.46;36.68
71384;BME280;61466;52.166;5.004;2022-07-23T07:09:53;102080.72;;;28.85;36.32
71384;BME280;61466;52.166;5.004;2022-07-23T07:12:18;102090.25;;;28.91;35.53
71384;BME280;61466;52.166;5.004;2022-07-23T07:14:43;102088.38;;;29.11;35.51
71384;BME280;61466;52.166;5.004;2022-07-23T07:17:09;102095.25;;;29.20;35.55
71384;BME280;61466;52.166;5.004;2022-07-23T07:19:36;102102.38;;;29.41;34.75
71384;BME280;61466;52.166;5.004;2022-07-23T07:22:01;102107.22;;;29.48;34.48
71384;BME280;61466;52.166;5.004;2022-07-23T07:24:26;102118.44;;;29.78;34.87
71384;BME280;61466;52.166;5.004;2022-07-23T07:26:51;102114.03;;;30.19;34.00
71384;BME280;61466;52.166;5.004;2022-07-23T07:29:17;102110.69;;;30.56;33.48
71384;BME280;61466;52.166;5.004;2022-07-23T07:31:42;102113.53;;;30.60;32.52
71384;BME280;61466;52.166;5.004;2022-07-23T07:34:07;102114.84;;;30.96;32.64
71384;BME280;61466;52.166;5.004;2022-07-23T07:36:33;102110.63;;;31.06;31.82
71384;BME280;61466;52.166;5.004;2022-07-23T07:38:58;102105.72;;;30.92;31.41
71384;BME280;61466;52.166;5.004;2022-07-23T07:41:24;102106.28;;;31.05;31.30
71384;BME280;61466;52.166;5.004;2022-07-23T07:43:51;102099.81;;;31.28;30.85
71384;BME280;61466;52.166;5.004;2022-07-23T07:46:16;102098.31;;;31.68;31.78
71384;BME280;61466;52.166;5.004;2022-07-23T07:48:42;102102.47;;;32.33;31.16
71384;BME280;61466;52.166;5.004;2022-07-23T07:51:07;102109.94;;;32.84;29.60
71384;BME280;61466;52.166;5.004;2022-07-23T07:53:32;102109.34;;;33.27;29.62
71384;BME280;61466;52.166;5.004;2022-07-23T07:55:58;102107.50;;;33.63;28.63
71384;BME280;61466;52.166;5.004;2022-07-23T07:58:23;102103.13;;;33.73;27.34
71384;BME280;61466;52.166;5.004;2022-07-23T08:00:49;102106.72;;;33.80;27.87
71384;BME280;61466;52.166;5.004;2022-07-23T08:03:14;102106.69;;;33.66;28.08
71384;BME280;61466;52.166;5.004;2022-07-23T08:05:39;102110.63;;;33.58;27.55
71384;BME280;61466;52.166;5.004;2022-07-23T08:08:05;102106.31;;;33.64;27.42
71384;BME280;61466;52.166;5.004;2022-07-23T08:10:30;102113.47;;;33.86;27.29
71384;BME280;61466;52.166;5.004;2022-07-23T08:12:59;102120.59;;;33.98;27.00
71384;BME280;61466;52.166;5.004;2022-07-23T08:15:28;102116.66;;;34.14;26.34
71384;BME280;61466;52.166;5.004;2022-07-23T08:17:55;102113.88;;;33.78;26.86
71384;BME280;61466;52.166;5.004;2022-07-23T08:20:21;102113.06;;;33.77;27.29
71384;BME280;61466;52.166;5.004;2022-07-23T08:22:52;102110.31;;;33.99;27.08
71384;BME280;61466;52.166;5.004;2022-07-23T08:25:28;102115.09;;;34.38;26.51
71384;BME280;61466;52.166;5.004;2022-07-23T08:27:55;102111.41;;;34.84;26.75
71384;BME280;61466;52.166;5.004;2022-07-23T08:30:21;102118.88;;;35.08;26.20
71384;BME280;61466;52.166;5.004;2022-07-23T08:32:54;102119.59;;;35.27;25.42
71384;BME280;61466;52.166;5.004;2022-07-23T08:35:34;102109.94;;;35.50;25.95
71384;BME280;61466;52.166;5.004;2022-07-23T08:38:02;102114.94;;;35.76;25.80
71384;BME280;61466;52.166;5.004;2022-07-23T08:40:30;102114.41;;;35.96;25.70
71384;BME280;61466;52.166;5.004;2022-07-23T08:42:56;102088.78;;;36.12;25.35
71384;BME280;61466;52.166;5.004;2022-07-23T08:45:23;102115.56;;;36.47;25.13
71384;BME280;61466;52.166;5.004;2022-07-23T08:47:50;102117.97;;;36.83;23.88
71384;BME280;61466;52.166;5.004;2022-07-23T08:50:16;102125.81;;;36.57;23.91
71384;BME280;61466;52.166;5.004;2022-07-23T08:52:41;102119.72;;;36.28;23.74
71384;BME280;61466;52.166;5.004;2022-07-23T08:55:07;102127.72;;;36.22;24.42
71384;BME280;61466;52.166;5.004;2022-07-23T08:57:33;102122.88;;;36.30;23.80
71384;BME280;61466;52.166;5.004;2022-07-23T08:59:59;102114.78;;;36.43;24.47
71384;BME280;61466;52.166;5.004;2022-07-23T09:02:24;102121.00;;;36.61;24.01
71384;BME280;61466;52.166;5.004;2022-07-23T09:04:49;102118.13;;;36.68;23.88
71384;BME280;61466;52.166;5.004;2022-07-23T09:07:15;102128.28;;;36.86;23.82
71384;BME280;61466;52.166;5.004;2022-07-23T09:09:40;102127.28;;;37.03;22.95
71384;BME280;61466;52.166;5.004;2022-07-23T09:12:08;102135.50;;;37.18;23.15
71384;BME280;61466;52.166;5.004;2022-07-23T09:14:41;102131.34;;;36.95;22.24
71384;BME280;61466;52.166;5.004;2022-07-23T09:17:15;102131.03;;;36.89;22.19
71384;BME280;61466;52.166;5.004;2022-07-23T09:19:43;102124.00;;;36.78;22.27
71384;BME280;61466;52.166;5.004;2022-07-23T09:22:21;102141.50;;;36.40;22.93
71384;BME280;61466;52.166;5.004;2022-07-23T09:25:10;102140.06;;;36.25;21.63
71384;BME280;61466;52.166;5.004;2022-07-23T09:27:54;102120.28;;;36.50;22.86
71384;BME280;61466;52.166;5.004;2022-07-23T09:30:24;102129.31;;;36.99;22.70
71384;BME280;61466;52.166;5.004;2022-07-23T09:33:13;102122.81;;;37.13;22.33
71384;BME280;61466;52.166;5.004;2022-07-23T09:35:49;102123.19;;;37.42;21.13
71384;BME280;61466;52.166;5.004;2022-07-23T09:38:15;102120.66;;;37.51;21.75
71384;BME280;61466;52.166;5.004;2022-07-23T09:40:44;102128.31;;;37.75;22.49
71384;BME280;61466;52.166;5.004;2022-07-23T09:43:10;102127.41;;;37.81;21.68
71384;BME280;61466;52.166;5.004;2022-07-23T09:45:36;102129.84;;;37.79;22.29
71384;BME280;61466;52.166;5.004;2022-07-23T09:48:16;102136.56;;;37.58;21.83
71384;BME280;61466;52.166;5.004;2022-07-23T09:50:43;102130.94;;;37.31;22.70
71384;BME280;61466;52.166;5.004;2022-07-23T09:53:09;102134.38;;;37.08;22.72
71384;BME280;61466;52.166;5.004;2022-07-23T09:55:36;102137.69;;;36.99;22.93
71384;BME280;61466;52.166;5.004;2022-07-23T09:58:03;102133.72;;;36.97;22.80
71384;BME280;61466;52.166;5.004;2022-07-23T10:00:31;102134.19;;;36.92;22.74
71384;BME280;61466;52.166;5.004;2022-07-23T10:02:57;102130.16;;;36.96;23.27
71384;BME280;61466;52.166;5.004;2022-07-23T10:05:24;102131.28;;;37.02;22.98
71384;BME280;61466;52.166;5.004;2022-07-23T10:07:50;102136.19;;;36.91;22.65
71384;BME280;61466;52.166;5.004;2022-07-23T10:10:17;102109.88;;;36.58;23.07
71384;BME280;61466;52.166;5.004;2022-07-23T10:12:45;102130.44;;;36.71;23.38
71384;BME280;61466;52.166;5.004;2022-07-23T10:15:10;102128.69;;;37.19;23.23
71384;BME280;61466;52.166;5.004;2022-07-23T10:17:36;102127.94;;;37.45;23.22
71384;BME280;61466;52.166;5.004;2022-07-23T10:20:02;102126.22;;;37.51;22.10
71384;BME280;61466;52.166;5.004;2022-07-23T10:22:37;102111.13;;;36.53;22.00
71384;BME280;61466;52.166;5.004;2022-07-23T10:25:18;102128.97;;;36.18;22.54
71384;BME280;61466;52.166;5.004;2022-07-23T10:35:37;102131.31;;;36.99;23.40
71384;BME280;61466;52.166;5.004;2022-07-23T10:38:15;102119.81;;;37.55;23.26
71384;BME280;61466;52.166;5.004;2022-07-23T10:41:13;102124.38;;;37.72;21.73
71384;BME280;61466;52.166;5.004;2022-07-23T10:43:39;102125.28;;;37.65;22.17
71384;BME280;61466;52.166;5.004;2022-07-23T10:46:24;102119.59;;;37.15;22.10
71384;BME280;61466;52.166;5.004;2022-07-23T10:54:43;102114.19;;;38.33;22.84
71384;BME280;61466;52.166;5.004;2022-07-23T10:57:10;102116.19;;;38.56;21.33
71384;BME280;61466;52.166;5.004;2022-07-23T11:02:29;102102.16;;;38.59;21.72
71384;BME280;61466;52.166;5.004;2022-07-23T11:05:01;102106.50;;;38.60;21.55
71384;BME280;61466;52.166;5.004;2022-07-23T11:07:26;102102.41;;;38.65;21.79
71384;BME280;61466;52.166;5.004;2022-07-23T11:09:53;102114.16;;;38.56;22.15
71384;BME280;61466;52.166;5.004;2022-07-23T11:15:04;102105.53;;;38.47;21.80
71384;BME280;61466;52.166;5.004;2022-07-23T11:17:31;102104.28;;;38.71;21.68
71384;BME280;61466;52.166;5.004;2022-07-23T11:22:56;102108.00;;;39.05;20.52
71384;BME280;61466;52.166;5.004;2022-07-23T11:27:48;102103.19;;;38.65;22.08
71384;BME280;61466;52.166;5.004;2022-07-23T11:32:52;102118.78;;;38.43;21.76
71384;BME280;61466;52.166;5.004;2022-07-23T11:35:22;102115.94;;;38.46;21.46
71384;BME280;61466;52.166;5.004;2022-07-23T11:37:49;102115.88;;;38.50;21.08
71384;BME280;61466;52.166;5.004;2022-07-23T11:40:20;102107.97;;;38.45;21.47
71384;BME280;61466;52.166;5.004;2022-07-23T11:43:00;102116.41;;;38.21;21.06
71384;BME280;61466;52.166;5.004;2022-07-23T11:45:41;102109.19;;;37.73;19.52
71384;BME280;61466;52.166;5.004;2022-07-23T11:48:20;102112.34;;;37.21;21.10
71384;BME280;61466;52.166;5.004;2022-07-23T11:50:46;102109.66;;;36.79;22.95
71384;BME280;61466;52.166;5.004;2022-07-23T11:53:11;102110.06;;;36.40;23.66
71384;BME280;61466;52.166;5.004;2022-07-23T11:55:37;102098.97;;;36.33;23.75
71384;BME280;61466;52.166;5.004;2022-07-23T11:58:02;102100.13;;;36.39;24.25
71384;BME280;61466;52.166;5.004;2022-07-23T12:00:30;102098.06;;;36.46;23.99
71384;BME280;61466;52.166;5.004;2022-07-23T12:02:59;102104.59;;;36.67;24.28
71384;BME280;61466;52.166;5.004;2022-07-23T12:05:31;102101.44;;;36.99;23.57
71384;BME280;61466;52.166;5.004;2022-07-23T12:07:57;102093.63;;;36.87;23.23
71384;BME280;61466;52.166;5.004;2022-07-23T12:10:25;102094.44;;;36.04;23.44
71384;BME280;61466;52.166;5.004;2022-07-23T12:15:29;102075.75;;;35.53;24.91
71384;BME280;61466;52.166;5.004;2022-07-23T12:17:57;102083.56;;;35.72;24.27
71384;BME280;61466;52.166;5.004;2022-07-23T12:20:25;102088.75;;;35.74;24.39
71384;BME280;61466;52.166;5.004;2022-07-23T12:22:54;102078.22;;;35.92;24.57
71384;BME280;61466;52.166;5.004;2022-07-23T12:25:23;102071.75;;;36.06;24.30
71384;BME280;61466;52.166;5.004;2022-07-23T12:28:03;102075.25;;;36.17;23.52
71384;BME280;61466;52.166;5.004;2022-07-23T12:30:38;102077.84;;;35.94;24.38
71384;BME280;61466;52.166;5.004;2022-07-23T12:33:05;102075.34;;;36.06;24.62
71384;BME280;61466;52.166;5.004;2022-07-23T12:35:33;102082.94;;;35.99;24.82
71384;BME280;61466;52.166;5.004;2022-07-23T12:38:02;102078.59;;;35.38;24.41
71384;BME280;61466;52.166;5.004;2022-07-23T12:42:58;102071.72;;;35.61;25.18
71384;BME280;61466;52.166;5.004;2022-07-23T12:45:26;102072.19;;;35.48;24.18
71384;BME280;61466;52.166;5.004;2022-07-23T12:48:03;102076.69;;;35.28;24.92
71384;BME280;61466;52.166;5.004;2022-07-23T12:50:38;102067.44;;;35.45;25.24
71384;BME280;61466;52.166;5.004;2022-07-23T12:53:08;102073.88;;;35.91;24.44
71384;BME280;61466;52.166;5.004;2022-07-23T12:55:35;102068.94;;;36.13;24.14
71384;BME280;61466;52.166;5.004;2022-07-23T12:58:26;102067.97;;;35.85;23.72
71384;BME280;61466;52.166;5.004;2022-07-23T13:00:59;102071.19;;;35.80;24.21
71384;BME280;61466;52.166;5.004;2022-07-23T13:03:32;102072.47;;;35.68;24.55
71384;BME280;61466;52.166;5.004;2022-07-23T13:05:58;102062.69;;;35.42;24.50
71384;BME280;61466;52.166;5.004;2022-07-23T13:08:25;102072.78;;;35.15;24.97
71384;BME280;61466;52.166;5.004;2022-07-23T13:10:51;102064.44;;;35.11;25.26
71384;BME280;61466;52.166;5.004;2022-07-23T13:13:20;102069.53;;;35.31;25.09
71384;BME280;61466;52.166;5.004;2022-07-23T13:15:46;102064.59;;;35.53;23.99
71384;BME280;61466;52.166;5.004;2022-07-23T13:18:11;102066.22;;;35.54;23.53
71384;BME280;61466;52.166;5.004;2022-07-23T13:20:36;102067.88;;;35.40;23.69
71384;BME280;61466;52.166;5.004;2022-07-23T13:23:04;102066.28;;;35.43;24.07